sensor_id;sensor_type;location;lat;lon;timestamp;pressure;altitude;pressure_sealevel;temperature;humidity
40794;BME280;26502;51.886;15.604;2023-06-04T00:01:38;101281.17;;;9.82;42.93
40794;BME280;26502;51.886;15.604;2023-06-04T00:06:44;101277.04;;;9.85;42.96
40794;BME280;26502;51.886;15.604;2023-06-04T00:11:50;101273.79;;;9.78;43.16
40794;BME280;26502;51.886;15.604;2023-06-04T00:16:56;101274.79;;;9.73;43.27
40794;BME280;26502;51.886;15.604;2023-06-04T00:22:01;101272.10;;;9.56;43.42
40794;BME280;26502;51.886;15.604;2023-06-04T00:27:08;101270.98;;;9.49;43.55
40794;BME280;26502;51.886;15.604;2023-06-04T00:32:14;101271.02;;;9.47;43.76
40794;BME280;26502;51.886;15.604;2023-06-04T00:37:21;101269.37;;;9.40;43.92
40794;BME280;26502;51.886;15.604;2023-06-04T00:42:27;101267.34;;;9.35;44.22
40794;BME280;26502;51.886;15.604;2023-06-04T00:47:33;101267.44;;;9.39;44.27
40794;BME280;26502;51.886;15.604;2023-06-04T00:52:39;101265.73;;;9.35;44.44
40794;BME280;26502;51.886;15.604;2023-06-04T00:57:45;101260.11;;;9.32;44.60
40794;BME280;26502;51.886;15.604;2023-06-04T01:02:52;101267.17;;;9.23;44.64
40794;BME280;26502;51.886;15.604;2023-06-04T01:07:58;101265.98;;;9.10;44.83
40794;BME280;26502;51.886;15.604;2023-06-04T01:13:04;101265.85;;;8.97;44.99
40794;BME280;26502;51.886;15.604;2023-06-04T01:18:11;101257.17;;;8.86;45.27
40794;BME280;26502;51.886;15.604;2023-06-04T01:23:33;101264.80;;;8.75;45.55
40794;BME280;26502;51.886;15.604;2023-06-04T01:28:44;101265.04;;;8.70;45.62
40794;BME280;26502;51.886;15.604;2023-06-04T01:33:52;101266.09;;;8.70;45.68
40794;BME280;26502;51.886;15.604;2023-06-04T01:38:58;101268.70;;;8.63;45.87
40794;BME280;26502;51.886;15.604;2023-06-04T01:44:05;101267.39;;;8.40;46.06
40794;BME280;26502;51.886;15.604;2023-06-04T01:49:11;101264.92;;;8.39;46.40
40794;BME280;26502;51.886;15.604;2023-06-04T01:54:17;101263.08;;;8.46;46.58
40794;BME280;26502;51.886;15.604;2023-06-04T01:59:23;101261.12;;;8.47;46.50
40794;BME280;26502;51.886;15.604;2023-06-04T02:04:28;101260.47;;;8.41;46.80
40794;BME280;26502;51.886;15.604;2023-06-04T02:09:34;101257.13;;;8.41;46.87
40794;BME280;26502;51.886;15.604;2023-06-04T02:14:40;101256.09;;;8.37;47.00
40794;BME280;26502;51.886;15.604;2023-06-04T02:19:47;101254.70;;;8.36;46.97
40794;BME280;26502;51.886;15.604;2023-06-04T02:24:54;101253.39;;;8.15;47.21
40794;BME280;26502;51.886;15.604;2023-06-04T02:30:00;101253.04;;;7.88;47.43
40794;BME280;26502;51.886;15.604;2023-06-04T02:35:07;101252.38;;;7.84;47.73
40794;BME280;26502;51.886;15.604;2023-06-04T02:40:13;101251.61;;;7.88;47.84
40794;BME280;26502;51.886;15.604;2023-06-04T02:45:19;101250.54;;;7.89;47.99
40794;BME280;26502;51.886;15.604;2023-06-04T02:50:25;101248.60;;;7.74;48.03
40794;BME280;26502;51.886;15.604;2023-06-04T02:55:31;101250.60;;;7.68;48.23
40794;BME280;26502;51.886;15.604;2023-06-04T03:00:37;101251.55;;;7.64;48.46
40794;BME280;26502;51.886;15.604;2023-06-04T03:05:43;101247.88;;;7.60;48.54
40794;BME280;26502;51.886;15.604;2023-06-04T03:10:49;101245.22;;;7.60;48.69
40794;BME280;26502;51.886;15.604;2023-06-04T03:15:56;101251.20;;;7.63;48.91
40794;BME280;26502;51.886;15.604;2023-06-04T03:21:05;101251.71;;;7.65;49.05
40794;BME280;26502;51.886;15.604;2023-06-04T03:26:11;101257.59;;;7.59;49.11
40794;BME280;26502;51.886;15.604;2023-06-04T03:31:18;101262.90;;;7.58;49.38
40794;BME280;26502;51.886;15.604;2023-06-04T03:36:24;101267.48;;;7.61;49.61
40794;BME280;26502;51.886;15.604;2023-06-04T03:41:36;101264.24;;;7.65;49.84
40794;BME280;26502;51.886;15.604;2023-06-04T03:46:43;101268.43;;;7.71;49.85
40794;BME280;26502;51.886;15.604;2023-06-04T03:51:50;101264.28;;;7.78;49.95
40794;BME280;26502;51.886;15.604;2023-06-04T03:56:57;101261.84;;;7.74;49.95
40794;BME280;26502;51.886;15.604;2023-06-04T04:02:03;101268.70;;;7.78;50.20
40794;BME280;26502;51.886;15.604;2023-06-04T04:07:11;101270.42;;;7.82;50.44
40794;BME280;26502;51.886;15.604;2023-06-04T04:12:17;101275.14;;;7.87;50.65
40794;BME280;26502;51.886;15.604;2023-06-04T04:17:23;101279.60;;;7.98;50.87
40794;BME280;26502;51.886;15.604;2023-06-04T04:22:30;101281.41;;;8.09;50.95
40794;BME280;26502;51.886;15.604;2023-06-04T04:27:36;101280.05;;;8.20;51.17
40794;BME280;26502;51.886;15.604;2023-06-04T04:32:46;101278.15;;;8.30;51.51
40794;BME280;26502;51.886;15.604;2023-06-04T04:37:54;101272.48;;;8.44;51.58
40794;BME280;26502;51.886;15.604;2023-06-04T04:43:00;101274.13;;;8.66;51.79
40794;BME280;26502;51.886;15.604;2023-06-04T04:48:06;101272.56;;;8.98;51.83
40794;BME280;26502;51.886;15.604;2023-06-04T04:53:13;101274.95;;;9.35;52.05
40794;BME280;26502;51.886;15.604;2023-06-04T04:58:19;101275.79;;;9.76;52.15
40794;BME280;26502;51.886;15.604;2023-06-04T05:03:25;101275.73;;;10.14;51.95
40794;BME280;26502;51.886;15.604;2023-06-04T05:08:31;101276.14;;;10.54;51.78
40794;BME280;26502;51.886;15.604;2023-06-04T05:13:37;101280.50;;;10.95;51.55
40794;BME280;26502;51.886;15.604;2023-06-04T05:18:45;101280.45;;;11.26;51.27
40794;BME280;26502;51.886;15.604;2023-06-04T05:23:56;101279.29;;;11.57;50.99
40794;BME280;26502;51.886;15.604;2023-06-04T05:29:04;101281.23;;;11.89;50.79
40794;BME280;26502;51.886;15.604;2023-06-04T05:34:12;101284.55;;;12.30;50.38
40794;BME280;26502;51.886;15.604;2023-06-04T05:39:21;101287.95;;;12.75;50.42
40794;BME280;26502;51.886;15.604;2023-06-04T05:44:35;101286.73;;;13.07;49.61
40794;BME280;26502;51.886;15.604;2023-06-04T05:49:42;101290.40;;;13.16;49.05
40794;BME280;26502;51.886;15.604;2023-06-04T05:54:48;101291.48;;;13.37;48.75
40794;BME280;26502;51.886;15.604;2023-06-04T05:59:55;101293.66;;;13.56;48.84
40794;BME280;26502;51.886;15.604;2023-06-04T06:05:01;101296.66;;;13.98;48.12
40794;BME280;26502;51.886;15.604;2023-06-04T06:10:08;101300.80;;;14.25;47.63
40794;BME280;26502;51.886;15.604;2023-06-04T06:15:15;101300.03;;;14.46;47.34
40794;BME280;26502;51.886;15.604;2023-06-04T06:20:23;101295.58;;;14.69;47.00
40794;BME280;26502;51.886;15.604;2023-06-04T06:25:29;101295.75;;;15.22;46.63
40794;BME280;26502;51.886;15.604;2023-06-04T06:30:41;101299.26;;;15.45;45.82
40794;BME280;26502;51.886;15.604;2023-06-04T06:35:47;101297.11;;;15.57;45.65
40794;BME280;26502;51.886;15.604;2023-06-04T06:40:53;101295.82;;;15.83;45.29
40794;BME280;26502;51.886;15.604;2023-06-04T06:45:59;101297.86;;;16.18;45.08
40794;BME280;26502;51.886;15.604;2023-06-04T06:51:05;101299.40;;;16.46;44.43
40794;BME280;26502;51.886;15.604;2023-06-04T06:56:11;101296.31;;;16.43;44.13
40794;BME280;26502;51.886;15.604;2023-06-04T07:01:16;101303.14;;;16.51;43.87
40794;BME280;26502;51.886;15.604;2023-06-04T07:06:23;101306.20;;;16.43;43.22
40794;BME280;26502;51.886;15.604;2023-06-04T07:11:29;101306.11;;;16.67;43.21
40794;BME280;26502;51.886;15.604;2023-06-04T07:16:35;101301.59;;;17.38;42.81
40794;BME280;26502;51.886;15.604;2023-06-04T07:21:41;101295.51;;;17.59;41.72
40794;BME280;26502;51.886;15.604;2023-06-04T07:26:47;101292.69;;;17.68;41.44
40794;BME280;26502;51.886;15.604;2023-06-04T07:31:52;101290.50;;;17.82;40.97
40794;BME280;26502;51.886;15.604;2023-06-04T07:36:58;101292.74;;;18.01;40.45
40794;BME280;26502;51.886;15.604;2023-06-04T07:42:05;101296.36;;;18.47;40.17
40794;BME280;26502;51.886;15.604;2023-06-04T07:47:11;101299.32;;;18.97;39.51
40794;BME280;26502;51.886;15.604;2023-06-04T07:52:17;101301.98;;;18.98;38.79
40794;BME280;26502;51.886;15.604;2023-06-04T07:57:23;101302.43;;;19.21;38.23
40794;BME280;26502;51.886;15.604;2023-06-04T08:02:29;101296.55;;;19.32;37.64
40794;BME280;26502;51.886;15.604;2023-06-04T08:07:35;101294.08;;;19.16;37.26
40794;BME280;26502;51.886;15.604;2023-06-04T08:12:41;101296.80;;;19.58;36.82
40794;BME280;26502;51.886;15.604;2023-06-04T08:17:47;101299.92;;;19.72;34.61
40794;BME280;26502;51.886;15.604;2023-06-04T08:22:53;101299.76;;;19.39;34.42
40794;BME280;26502;51.886;15.604;2023-06-04T08:27:59;101306.46;;;19.62;34.36
40794;BME280;26502;51.886;15.604;2023-06-04T08:33:05;101305.55;;;19.96;34.41
40794;BME280;26502;51.886;15.604;2023-06-04T08:38:11;101298.20;;;19.98;33.80
40794;BME280;26502;51.886;15.604;2023-06-04T08:43:17;101299.48;;;20.00;33.65
40794;BME280;26502;51.886;15.604;2023-06-04T08:48:25;101304.58;;;20.54;33.29
40794;BME280;26502;51.886;15.604;2023-06-04T08:53:30;101306.79;;;20.71;32.27
40794;BME280;26502;51.886;15.604;2023-06-04T08:58:37;101304.86;;;20.75;31.50
40794;BME280;26502;51.886;15.604;2023-06-04T09:03:46;101310.29;;;20.84;30.99
40794;BME280;26502;51.886;15.604;2023-06-04T09:08:54;101311.45;;;21.02;30.65
40794;BME280;26502;51.886;15.604;2023-06-04T09:14:07;101308.73;;;20.68;30.00
40794;BME280;26502;51.886;15.604;2023-06-04T09:19:14;101305.51;;;20.59;30.02
40794;BME280;26502;51.886;15.604;2023-06-04T09:24:20;101294.00;;;20.78;30.08
40794;BME280;26502;51.886;15.604;2023-06-04T09:29:27;101298.26;;;20.88;29.55
40794;BME280;26502;51.886;15.604;2023-06-04T09:34:33;101298.70;;;20.89;29.43
40794;BME280;26502;51.886;15.604;2023-06-04T09:39:40;101296.67;;;21.23;29.12
40794;BME280;26502;51.886;15.604;2023-06-04T09:44:46;101296.70;;;21.65;29.30
40794;BME280;26502;51.886;15.604;2023-06-04T09:49:52;101291.84;;;22.06;29.01
40794;BME280;26502;51.886;15.604;2023-06-04T09:54:57;101292.48;;;22.10;28.44
40794;BME280;26502;51.886;15.604;2023-06-04T10:00:04;101294.05;;;22.14;28.61
40794;BME280;26502;51.886;15.604;2023-06-04T10:05:16;101290.55;;;22.19;28.23
40794;BME280;26502;51.886;15.604;2023-06-04T10:10:27;101278.84;;;22.66;28.09
40794;BME280;26502;51.886;15.604;2023-06-04T10:15:33;101281.09;;;22.83;27.85
40794;BME280;26502;51.886;15.604;2023-06-04T10:20:41;101279.73;;;23.23;27.55
40794;BME280;26502;51.886;15.604;2023-06-04T10:25:50;101271.08;;;23.36;26.63
40794;BME280;26502;51.886;15.604;2023-06-04T10:30:56;101272.59;;;23.31;26.91
40794;BME280;26502;51.886;15.604;2023-06-04T10:36:17;101279.25;;;23.85;26.58
40794;BME280;26502;51.886;15.604;2023-06-04T10:41:24;101275.17;;;24.07;26.36
40794;BME280;26502;51.886;15.604;2023-06-04T10:46:40;101270.94;;;24.26;26.23
40794;BME280;26502;51.886;15.604;2023-06-04T10:51:47;101264.94;;;24.33;26.21
40794;BME280;26502;51.886;15.604;2023-06-04T10:56:53;101264.17;;;24.47;25.59
40794;BME280;26502;51.886;15.604;2023-06-04T11:02:08;101261.23;;;24.20;25.75
40794;BME280;26502;51.886;15.604;2023-06-04T11:07:14;101265.18;;;24.41;25.41
40794;BME280;26502;51.886;15.604;2023-06-04T11:12:20;101256.02;;;24.15;24.65
40794;BME280;26502;51.886;15.604;2023-06-04T11:17:26;101253.11;;;23.79;24.96
40794;BME280;26502;51.886;15.604;2023-06-04T11:22:32;101253.52;;;24.48;24.98
40794;BME280;26502;51.886;15.604;2023-06-04T11:27:38;101260.15;;;24.87;24.66
40794;BME280;26502;51.886;15.604;2023-06-04T11:32:45;101250.59;;;24.93;24.29
40794;BME280;26502;51.886;15.604;2023-06-04T11:37:56;101247.69;;;25.08;24.04
40794;BME280;26502;51.886;15.604;2023-06-04T11:43:02;101249.14;;;24.82;23.69
40794;BME280;26502;51.886;15.604;2023-06-04T11:48:12;101240.68;;;24.63;23.12
40794;BME280;26502;51.886;15.604;2023-06-04T11:53:18;101237.11;;;24.60;23.21
40794;BME280;26502;51.886;15.604;2023-06-04T11:58:25;101235.70;;;24.71;23.06
40794;BME280;26502;51.886;15.604;2023-06-04T12:03:38;101229.14;;;25.10;22.85
40794;BME280;26502;51.886;15.604;2023-06-04T12:08:48;101225.00;;;25.12;22.32
40794;BME280;26502;51.886;15.604;2023-06-04T12:13:56;101229.48;;;24.84;22.43
40794;BME280;26502;51.886;15.604;2023-06-04T12:19:09;101230.73;;;24.89;22.81
40794;BME280;26502;51.886;15.604;2023-06-04T12:24:16;101229.86;;;25.23;22.60
40794;BME280;26502;51.886;15.604;2023-06-04T12:29:21;101229.62;;;25.30;22.25
40794;BME280;26502;51.886;15.604;2023-06-04T12:34:28;101230.17;;;25.11;22.02
40794;BME280;26502;51.886;15.604;2023-06-04T12:39:34;101223.20;;;24.59;21.55
40794;BME280;26502;51.886;15.604;2023-06-04T12:44:41;101222.51;;;25.03;22.33
40794;BME280;26502;51.886;15.604;2023-06-04T12:49:47;101219.48;;;25.74;22.24
40794;BME280;26502;51.886;15.604;2023-06-04T12:54:53;101217.91;;;26.12;22.05
40794;BME280;26502;51.886;15.604;2023-06-04T12:59:59;101216.51;;;25.72;21.57
40794;BME280;26502;51.886;15.604;2023-06-04T13:05:06;101210.14;;;25.62;21.57
40794;BME280;26502;51.886;15.604;2023-06-04T13:10:12;101210.11;;;25.83;21.65
40794;BME280;26502;51.886;15.604;2023-06-04T13:15:18;101208.73;;;26.46;21.67
40794;BME280;26502;51.886;15.604;2023-06-04T13:20:24;101195.34;;;26.54;21.54
40794;BME280;26502;51.886;15.604;2023-06-04T13:25:30;101198.55;;;26.69;21.74
40794;BME280;26502;51.886;15.604;2023-06-04T13:30:38;101201.16;;;27.20;21.80
40794;BME280;26502;51.886;15.604;2023-06-04T13:35:44;101203.02;;;27.42;21.53
40794;BME280;26502;51.886;15.604;2023-06-04T13:40:50;101201.34;;;27.41;21.27
40794;BME280;26502;51.886;15.604;2023-06-04T13:45:56;101195.33;;;27.58;21.07
40794;BME280;26502;51.886;15.604;2023-06-04T13:51:01;101196.06;;;27.83;21.19
40794;BME280;26502;51.886;15.604;2023-06-04T13:56:07;101200.36;;;28.13;21.05
40794;BME280;26502;51.886;15.604;2023-06-04T14:01:13;101198.99;;;28.49;20.92
40794;BME280;26502;51.886;15.604;2023-06-04T14:06:19;101196.50;;;28.29;20.35
40794;BME280;26502;51.886;15.604;2023-06-04T14:11:25;101191.93;;;27.90;20.40
40794;BME280;26502;51.886;15.604;2023-06-04T14:16:31;101192.28;;;27.84;20.10
40794;BME280;26502;51.886;15.604;2023-06-04T14:21:39;101186.00;;;27.98;19.97
40794;BME280;26502;51.886;15.604;2023-06-04T14:26:46;101177.05;;;27.76;19.90
40794;BME280;26502;51.886;15.604;2023-06-04T14:31:52;101177.50;;;27.97;19.90
40794;BME280;26502;51.886;15.604;2023-06-04T14:36:58;101175.26;;;28.18;20.16
40794;BME280;26502;51.886;15.604;2023-06-04T14:42:05;101175.39;;;28.15;19.84
40794;BME280;26502;51.886;15.604;2023-06-04T14:47:11;101170.16;;;28.07;19.79
40794;BME280;26502;51.886;15.604;2023-06-04T14:52:17;101166.73;;;28.16;19.50
40794;BME280;26502;51.886;15.604;2023-06-04T14:57:23;101164.52;;;28.09;19.43
40794;BME280;26502;51.886;15.604;2023-06-04T15:02:29;101165.63;;;28.08;19.34
40794;BME280;26502;51.886;15.604;2023-06-04T15:07:35;101167.69;;;28.25;19.44
40794;BME280;26502;51.886;15.604;2023-06-04T15:12:42;101162.95;;;28.45;19.35
40794;BME280;26502;51.886;15.604;2023-06-04T15:17:48;101157.48;;;28.43;19.20
40794;BME280;26502;51.886;15.604;2023-06-04T15:22:54;101155.88;;;28.38;19.16
40794;BME280;26502;51.886;15.604;2023-06-04T15:28:01;101159.06;;;28.21;19.14
40794;BME280;26502;51.886;15.604;2023-06-04T15:33:07;101154.67;;;28.03;19.29
40794;BME280;26502;51.886;15.604;2023-06-04T15:38:12;101145.73;;;28.03;19.21
40794;BME280;26502;51.886;15.604;2023-06-04T15:43:19;101147.56;;;27.76;19.23
40794;BME280;26502;51.886;15.604;2023-06-04T15:48:25;101146.08;;;27.47;19.29
40794;BME280;26502;51.886;15.604;2023-06-04T15:53:32;101151.95;;;27.46;19.55
40794;BME280;26502;51.886;15.604;2023-06-04T15:58:38;101149.34;;;27.58;19.37
40794;BME280;26502;51.886;15.604;2023-06-04T16:03:44;101152.42;;;27.51;19.44
40794;BME280;26502;51.886;15.604;2023-06-04T16:08:50;101153.21;;;27.51;19.58
40794;BME280;26502;51.886;15.604;2023-06-04T16:13:56;101149.63;;;27.48;19.54
40794;BME280;26502;51.886;15.604;2023-06-04T16:19:03;101147.55;;;27.39;19.64
40794;BME280;26502;51.886;15.604;2023-06-04T16:24:08;101144.02;;;27.34;19.55
40794;BME280;26502;51.886;15.604;2023-06-04T16:29:15;101131.80;;;27.22;19.68
40794;BME280;26502;51.886;15.604;2023-06-04T16:34:21;101133.77;;;26.88;19.80
40794;BME280;26502;51.886;15.604;2023-06-04T16:39:27;101134.69;;;26.71;19.91
40794;BME280;26502;51.886;15.604;2023-06-04T16:44:33;101132.00;;;26.66;20.00
40794;BME280;26502;51.886;15.604;2023-06-04T16:49:38;101132.61;;;26.43;20.10
40794;BME280;26502;51.886;15.604;2023-06-04T16:54:44;101131.05;;;26.17;20.19
40794;BME280;26502;51.886;15.604;2023-06-04T16:59:51;101133.53;;;25.77;20.33
40794;BME280;26502;51.886;15.604;2023-06-04T17:04:57;101132.00;;;25.53;20.45
40794;BME280;26502;51.886;15.604;2023-06-04T17:10:03;101132.54;;;25.30;20.63
40794;BME280;26502;51.886;15.604;2023-06-04T17:15:11;101134.88;;;24.93;20.76
40794;BME280;26502;51.886;15.604;2023-06-04T17:20:17;101143.33;;;24.66;20.96
40794;BME280;26502;51.886;15.604;2023-06-04T17:25:24;101149.22;;;24.36;20.98
40794;BME280;26502;51.886;15.604;2023-06-04T17:30:29;101146.75;;;24.16;21.13
40794;BME280;26502;51.886;15.604;2023-06-04T17:35:36;101148.11;;;23.99;21.43
40794;BME280;26502;51.886;15.604;2023-06-04T17:40:43;101156.70;;;23.84;21.57
40794;BME280;26502;51.886;15.604;2023-06-04T17:45:49;101155.48;;;23.73;21.63
40794;BME280;26502;51.886;15.604;2023-06-04T17:50:55;101157.93;;;23.51;21.79
40794;BME280;26502;51.886;15.604;2023-06-04T17:56:02;101158.93;;;23.29;21.93
40794;BME280;26502;51.886;15.604;2023-06-04T18:01:08;101160.26;;;23.26;22.50
40794;BME280;26502;51.886;15.604;2023-06-04T18:06:14;101158.25;;;23.24;22.84
40794;BME280;26502;51.886;15.604;2023-06-04T18:11:20;101161.04;;;23.14;23.08
40794;BME280;26502;51.886;15.604;2023-06-04T18:16:26;101164.23;;;23.05;23.63
40794;BME280;26502;51.886;15.604;2023-06-04T18:21:32;101161.46;;;22.84;23.74
40794;BME280;26502;51.886;15.604;2023-06-04T18:26:39;101168.39;;;22.67;24.05
40794;BME280;26502;51.886;15.604;2023-06-04T18:31:45;101171.42;;;22.45;24.33
40794;BME280;26502;51.886;15.604;2023-06-04T18:36:52;101170.27;;;22.24;24.58
40794;BME280;26502;51.886;15.604;2023-06-04T18:41:59;101174.05;;;22.02;24.91
40794;BME280;26502;51.886;15.604;2023-06-04T18:47:06;101180.13;;;21.91;25.24
40794;BME280;26502;51.886;15.604;2023-06-04T18:52:15;101179.78;;;21.67;25.52
40794;BME280;26502;51.886;15.604;2023-06-04T18:57:21;101188.32;;;21.48;25.83
40794;BME280;26502;51.886;15.604;2023-06-04T19:02:27;101197.79;;;21.29;26.01
40794;BME280;26502;51.886;15.604;2023-06-04T19:07:34;101207.34;;;21.00;26.18
40794;BME280;26502;51.886;15.604;2023-06-04T19:12:41;101211.27;;;20.76;26.77
40794;BME280;26502;51.886;15.604;2023-06-04T19:17:47;101218.69;;;20.46;27.12
40794;BME280;26502;51.886;15.604;2023-06-04T19:22:56;101227.05;;;20.25;27.80
40794;BME280;26502;51.886;15.604;2023-06-04T19:28:03;101228.67;;;20.03;27.90
40794;BME280;26502;51.886;15.604;2023-06-04T19:33:09;101231.33;;;19.74;28.24
40794;BME280;26502;51.886;15.604;2023-06-04T19:38:16;101233.25;;;19.43;28.47
40794;BME280;26502;51.886;15.604;2023-06-04T19:43:23;101236.35;;;19.09;28.95
40794;BME280;26502;51.886;15.604;2023-06-04T19:48:30;101244.52;;;18.83;29.29
40794;BME280;26502;51.886;15.604;2023-06-04T19:53:38;101246.46;;;18.71;29.78
40794;BME280;26502;51.886;15.604;2023-06-04T19:58:46;101247.59;;;18.60;30.13
40794;BME280;26502;51.886;15.604;2023-06-04T20:03:52;101244.94;;;18.44;30.63
40794;BME280;26502;51.886;15.604;2023-06-04T20:08:58;101253.06;;;18.27;30.78
40794;BME280;26502;51.886;15.604;2023-06-04T20:14:04;101255.27;;;18.03;30.93
40794;BME280;26502;51.886;15.604;2023-06-04T20:19:10;101255.73;;;17.84;31.42
40794;BME280;26502;51.886;15.604;2023-06-04T20:24:16;101256.27;;;17.60;31.63
40794;BME280;26502;51.886;15.604;2023-06-04T20:29:22;101254.69;;;17.28;31.80
40794;BME280;26502;51.886;15.604;2023-06-04T20:34:28;101253.64;;;17.17;32.33
40794;BME280;26502;51.886;15.604;2023-06-04T20:39:34;101264.71;;;16.93;32.49
40794;BME280;26502;51.886;15.604;2023-06-04T20:44:44;101265.61;;;16.71;32.91
40794;BME280;26502;51.886;15.604;2023-06-04T20:49:50;101270.71;;;16.54;33.16
40794;BME280;26502;51.886;15.604;2023-06-04T20:54:55;101270.98;;;16.44;33.51
40794;BME280;26502;51.886;15.604;2023-06-04T21:00:01;101272.86;;;16.28;33.66
40794;BME280;26502;51.886;15.604;2023-06-04T21:05:08;101273.75;;;16.04;34.22
40794;BME280;26502;51.886;15.604;2023-06-04T21:10:14;101265.12;;;15.77;34.62
40794;BME280;26502;51.886;15.604;2023-06-04T21:15:20;101267.59;;;15.69;35.04
40794;BME280;26502;51.886;15.604;2023-06-04T21:20:26;101269.02;;;15.53;35.35
40794;BME280;26502;51.886;15.604;2023-06-04T21:25:32;101271.31;;;15.41;35.55
40794;BME280;26502;51.886;15.604;2023-06-04T21:30:37;101273.00;;;15.35;35.71
40794;BME280;26502;51.886;15.604;2023-06-04T21:35:44;101277.83;;;15.31;35.95
40794;BME280;26502;51.886;15.604;2023-06-04T21:40:50;101277.98;;;15.19;35.85
40794;BME280;26502;51.886;15.604;2023-06-04T21:45:56;101278.70;;;15.06;36.20
40794;BME280;26502;51.886;15.604;2023-06-04T21:51:02;101279.81;;;14.92;36.53
40794;BME280;26502;51.886;15.604;2023-06-04T21:56:08;101281.84;;;14.78;36.91
40794;BME280;26502;51.886;15.604;2023-06-04T22:01:13;101287.38;;;14.59;37.17
40794;BME280;26502;51.886;15.604;2023-06-04T22:06:19;101292.20;;;14.45;37.36
40794;BME280;26502;51.886;15.604;2023-06-04T22:11:25;101296.81;;;14.22;37.72
40794;BME280;26502;51.886;15.604;2023-06-04T22:16:31;101302.33;;;14.14;38.08
40794;BME280;26502;51.886;15.604;2023-06-04T22:21:36;101300.39;;;14.08;38.24
40794;BME280;26502;51.886;15.604;2023-06-04T22:26:42;101297.23;;;14.07;38.59
40794;BME280;26502;51.886;15.604;2023-06-04T22:31:48;101301.86;;;13.92;38.48
40794;BME280;26502;51.886;15.604;2023-06-04T22:36:54;101296.04;;;13.60;38.72
40794;BME280;26502;51.886;15.604;2023-06-04T22:42:00;101299.98;;;13.38;39.13
40794;BME280;26502;51.886;15.604;2023-06-04T22:47:06;101305.26;;;13.19;39.46
40794;BME280;26502;51.886;15.604;2023-06-04T22:52:13;101305.52;;;13.21;39.73
40794;BME280;26502;51.886;15.604;2023-06-04T22:57:19;101302.97;;;13.07;40.09
40794;BME280;26502;51.886;15.604;2023-06-04T23:02:25;101295.95;;;13.04;40.17
40794;BME280;26502;51.886;15.604;2023-06-04T23:07:31;101300.48;;;13.01;40.40
40794;BME280;26502;51.886;15.604;2023-06-04T23:12:37;101299.75;;;12.80;40.61
40794;BME280;26502;51.886;15.604;2023-06-04T23:17:43;101299.91;;;12.58;40.93
40794;BME280;26502;51.886;15.604;2023-06-04T23:22:49;101303.87;;;12.50;41.27
40794;BME280;26502;51.886;15.604;2023-06-04T23:27:55;101302.63;;;12.45;41.52
40794;BME280;26502;51.886;15.604;2023-06-04T23:33:00;101298.40;;;12.48;41.70
40794;BME280;26502;51.886;15.604;2023-06-04T23:38:07;101298.23;;;12.42;41.74
40794;BME280;26502;51.886;15.604;2023-06-04T23:43:12;101306.23;;;12.30;41.98
40794;BME280;26502;51.886;15.604;2023-06-04T23:48:19;101306.15;;;12.16;42.33
40794;BME280;26502;51.886;15.604;2023-06-04T23:53:25;101304.73;;;12.22;42.42
40794;BME280;26502;51.886;15.604;2023-06-04T23:58:30;101300.90;;;12.12;42.22
